Time;durP1;ratioP1;P1;durP2;ratioP2;P2;SDS_P1;SDS_P2;PMS_P1;PMS_P2;Temp;Humidity;BMP_temperature;BMP_pressure;BME280_temperature;BME280_humidity;BME280_pressure;Samples;Min_cycle;Max_cycle;Signal;HPM_P1;HPM_P2
2022/09/19 00:01:19;;;;;;;3.42;1.13;;;;;;;-145.70;100.00;63560.63;5059042;28;20534;-64
2022/09/19 00:03:52;;;;;;;4.07;1.33;;;;;;;-145.70;100.00;63560.63;5052410;28;20028;-64
2022/09/19 00:06:18;;;;;;;2.83;0.90;;;;;;;-145.70;100.00;63560.63;5069996;28;20043;-63
2022/09/19 00:08:45;;;;;;;4.00;1.30;;;;;;;-145.70;100.00;63560.63;5074293;28;20024;-63
2022/09/19 00:11:13;;;;;;;3.22;1.13;;;;;;;-145.70;100.00;63560.63;5054316;28;20313;-64
2022/09/19 00:13:47;;;;;;;3.60;1.00;;;;;;;-145.70;100.00;63560.63;5054231;28;20024;-65
2022/09/19 00:16:21;;;;;;;3.78;1.10;;;;;;;-145.70;100.00;63560.63;5062664;28;20104;-63
2022/09/19 00:18:47;;;;;;;3.05;1.05;;;;;;;-145.70;100.00;63560.63;5073512;28;20059;-64
2022/09/19 00:21:27;;;;;;;3.63;1.10;;;;;;;-145.70;100.00;63560.63;5051819;28;20028;-63
2022/09/19 00:26:39;;;;;;;3.13;1.00;;;;;;;-145.70;100.00;63560.63;5070805;28;20206;-64
2022/09/19 00:29:06;;;;;;;3.65;0.95;;;;;;;-145.70;100.00;63560.63;5061921;28;20126;-63
2022/09/19 00:31:31;;;;;;;3.13;1.05;;;;;;;-145.70;100.00;63560.63;5075655;28;20485;-62
2022/09/19 00:33:57;;;;;;;2.55;0.90;;;;;;;-145.70;100.00;63560.63;5070065;28;20038;-64
2022/09/19 00:36:23;;;;;;;2.97;0.98;;;;;;;-145.70;100.00;63560.63;5067512;28;20024;-62
2022/09/19 00:38:49;;;;;;;3.50;1.08;;;;;;;-145.70;100.00;63560.63;5080555;28;20680;-63
2022/09/19 00:41:20;;;;;;;4.90;1.10;;;;;;;-145.70;100.00;63560.63;5061716;28;20035;-63
2022/09/19 00:44:01;;;;;;;3.88;1.00;;;;;;;-145.70;100.00;63560.63;5069656;28;20033;-64
2022/09/19 00:46:29;;;;;;;2.92;0.85;;;;;;;-145.70;100.00;63560.63;5074321;28;20115;-63
2022/09/19 00:49:00;;;;;;;3.50;1.15;;;;;;;-145.70;100.00;63560.63;5105372;27;20051;-64
2022/09/19 00:51:32;;;;;;;4.07;1.00;;;;;;;-145.70;100.00;63560.63;5066190;28;20044;-63
2022/09/19 00:54:00;;;;;;;3.45;1.00;;;;;;;-145.70;100.00;63560.63;5059832;28;20096;-62
2022/09/19 00:56:28;;;;;;;3.47;1.10;;;;;;;-145.70;100.00;63560.63;5107792;27;20068;-63
2022/09/19 00:58:53;;;;;;;3.95;1.02;;;;;;;-145.70;100.00;63560.63;5080122;28;20032;-64
2022/09/19 01:01:19;;;;;;;4.05;1.10;;;;;;;-145.70;100.00;63560.63;5056628;28;20035;-64
2022/09/19 01:03:46;;;;;;;3.97;0.98;;;;;;;-145.70;100.00;63560.63;5037531;28;20035;-65
2022/09/19 01:06:35;;;;;;;3.92;1.10;;;;;;;-145.70;100.00;63560.63;5061219;28;20390;-64
2022/09/19 01:09:19;;;;;;;;;;;;;;;-145.70;100.00;63560.63;5075809;28;20035;-62
2022/09/19 01:12:16;;;;;;;4.25;0.90;;;;;;;-145.70;100.00;63560.63;5077316;28;19920;-65
2022/09/19 01:14:54;;;;;;;3.70;0.90;;;;;;;-145.70;100.00;63560.63;5074552;28;20065;-63
2022/09/19 01:17:46;;;;;;;3.30;0.90;;;;;;;-145.70;100.00;63560.63;5081771;28;20131;-64
2022/09/19 01:20:33;;;;;;;3.40;0.90;;;;;;;-145.70;100.00;63560.63;5069046;28;20551;-62
2022/09/19 01:23:24;;;;;;;2.60;0.70;;;;;;;-145.70;100.00;63560.63;5078555;28;20040;-62
2022/09/19 01:26:38;;;;;;;3.08;0.90;;;;;;;-145.70;100.00;63560.63;5072634;28;20027;-64
2022/09/19 01:29:22;;;;;;;2.25;0.73;;;;;;;-145.70;100.00;63560.63;5061266;28;20036;-64
2022/09/19 01:31:52;;;;;;;3.08;0.90;;;;;;;-145.70;100.00;63560.63;5075187;28;20152;-62
2022/09/19 01:34:23;;;;;;;2.33;0.70;;;;;;;-145.70;100.00;63560.63;5064977;28;20100;-62
2022/09/19 01:36:52;;;;;;;4.25;0.90;;;;;;;-145.70;100.00;63560.63;5077668;28;20052;-63
2022/09/19 01:39:23;;;;;;;2.60;0.90;;;;;;;-145.70;100.00;63560.63;5082475;28;20486;-63
2022/09/19 01:41:50;;;;;;;4.28;0.90;;;;;;;-145.70;100.00;63560.63;5073321;28;20085;-62
2022/09/19 01:44:18;;;;;;;3.30;1.00;;;;;;;-145.70;100.00;63560.63;5072943;28;20032;-62
2022/09/19 01:46:52;;;;;;;3.00;0.80;;;;;;;-145.70;100.00;63560.63;5075138;28;20032;-63
2022/09/19 01:49:31;;;;;;;2.47;0.77;;;;;;;-145.70;100.00;63560.63;5077838;28;20020;-63
2022/09/19 01:52:34;;;;;;;3.90;1.03;;;;;;;-145.70;100.00;63560.63;5073277;28;20043;-63
2022/09/19 01:55:30;;;;;;;4.13;1.00;;;;;;;-145.70;100.00;63560.63;5072878;28;20086;-63
2022/09/19 01:58:07;;;;;;;3.13;1.20;;;;;;;-145.70;100.00;63560.63;5073583;28;20040;-62
2022/09/19 02:00:34;;;;;;;2.20;0.80;;;;;;;-145.70;100.00;63560.63;5054255;28;20028;-62
2022/09/19 02:03:22;;;;;;;4.22;1.08;;;;;;;-145.70;100.00;63560.63;5059384;28;20035;-63
2022/09/19 02:06:16;;;;;;;3.53;0.73;;;;;;;-145.70;100.00;63560.63;5073064;28;20604;-62
2022/09/19 02:08:55;;;;;;;3.65;0.77;;;;;;;-145.70;100.00;63560.63;5070318;28;20052;-62
2022/09/19 02:11:21;;;;;;;2.97;0.90;;;;;;;-145.70;100.00;63560.63;5073521;28;20039;-63
2022/09/19 02:13:52;;;;;;;2.80;0.80;;;;;;;-145.70;100.00;63560.63;5053575;28;20132;-62
2022/09/19 02:16:24;;;;;;;3.35;1.00;;;;;;;-145.70;100.00;63560.63;5076414;28;20118;-63
2022/09/19 02:18:56;;;;;;;2.97;0.80;;;;;;;-145.70;100.00;63560.63;5077326;28;20031;-61
2022/09/19 02:21:45;;;;;;;2.42;0.90;;;;;;;-145.70;100.00;63560.63;5070957;28;20490;-64
2022/09/19 02:24:14;;;;;;;3.35;0.90;;;;;;;-145.70;100.00;63560.63;5077582;28;20020;-63
2022/09/19 02:26:42;;;;;;;2.53;0.80;;;;;;;-145.70;100.00;63560.63;5070279;28;20027;-64
2022/09/19 02:29:12;;;;;;;2.95;0.90;;;;;;;-145.70;100.00;63560.63;5071674;28;20506;-62
2022/09/19 02:31:38;;;;;;;4.07;0.98;;;;;;;-145.70;100.00;63560.63;5074401;28;20040;-61
2022/09/19 02:34:05;;;;;;;2.22;0.73;;;;;;;-145.70;100.00;63560.63;5079943;28;20032;-62
2022/09/19 02:36:44;;;;;;;3.13;1.05;;;;;;;-145.70;100.00;63560.63;5071096;28;20391;-62
2022/09/19 02:39:18;;;;;;;2.85;0.82;;;;;;;-145.70;100.00;63560.63;5073215;28;20028;-62
2022/09/19 02:41:59;;;;;;;3.08;1.00;;;;;;;-145.70;100.00;63560.63;5075370;28;20376;-61
2022/09/19 02:44:33;;;;;;;3.05;1.00;;;;;;;-145.70;100.00;63560.63;5057760;28;20391;-62
2022/09/19 02:47:24;;;;;;;2.70;0.90;;;;;;;-145.70;100.00;63560.63;5074543;28;20135;-62
2022/09/19 02:49:54;;;;;;;2.97;0.82;;;;;;;-145.70;100.00;63560.63;5109866;27;20028;-61
2022/09/19 02:52:33;;;;;;;3.15;1.00;;;;;;;-145.70;100.00;63560.63;5074158;28;20039;-62
2022/09/19 02:55:05;;;;;;;2.83;0.90;;;;;;;-145.70;100.00;63560.63;5072184;28;20363;-62
2022/09/19 02:57:32;;;;;;;3.28;1.08;;;;;;;-145.70;100.00;63560.63;5067491;28;20032;-61
2022/09/19 02:59:59;;;;;;;2.97;0.80;;;;;;;-145.70;100.00;63560.63;5078997;28;20028;-63
2022/09/19 03:02:34;;;;;;;3.53;0.93;;;;;;;-145.70;100.00;63560.63;5073781;28;20076;-64
2022/09/19 03:05:05;;;;;;;2.33;0.85;;;;;;;-145.70;100.00;63560.63;5072378;28;20564;-62
2022/09/19 03:07:36;;;;;;;2.60;0.82;;;;;;;-145.70;100.00;63560.63;5056724;28;20048;-62
2022/09/19 03:10:12;;;;;;;5.95;1.10;;;;;;;-145.70;100.00;63560.63;5072302;28;20024;-64
2022/09/19 03:12:50;;;;;;;3.20;0.95;;;;;;;-145.70;100.00;63560.63;5091391;28;20031;-62
2022/09/19 03:15:20;;;;;;;3.75;1.10;;;;;;;-145.70;100.00;63560.63;5077287;28;20061;-64
2022/09/19 03:17:49;;;;;;;;;;;;;;;-145.70;100.00;63560.63;5082993;28;20059;-62
2022/09/19 03:20:14;;;;;;;2.92;0.93;;;;;;;-145.70;100.00;63560.63;5104095;28;19926;-62
2022/09/19 03:22:40;;;;;;;3.22;1.10;;;;;;;-145.70;100.00;63560.63;5069658;28;20062;-62
2022/09/19 03:25:07;;;;;;;2.85;0.63;;;;;;;-145.70;100.00;63560.63;5076515;28;20133;-62
2022/09/19 03:27:33;;;;;;;3.17;0.98;;;;;;;-145.70;100.00;63560.63;5071887;28;20031;-62
2022/09/19 03:29:59;;;;;;;3.28;0.90;;;;;;;-145.70;100.00;63560.63;5073364;28;20073;-63
2022/09/19 03:32:25;;;;;;;3.58;1.10;;;;;;;-145.70;100.00;63560.63;5066647;28;20024;-61
2022/09/19 03:34:53;;;;;;;3.45;0.90;;;;;;;-145.70;100.00;63560.63;5059865;28;20040;-63
2022/09/19 03:37:18;;;;;;;4.38;1.70;;;;;;;-145.70;100.00;63560.63;5074314;28;20028;-63
2022/09/19 03:39:45;;;;;;;3.35;1.10;;;;;;;-145.70;100.00;63560.63;5072824;28;20031;-61
2022/09/19 03:42:10;;;;;;;5.18;1.20;;;;;;;-145.70;100.00;63560.63;5078382;28;20031;-62
2022/09/19 03:44:36;;;;;;;3.70;0.95;;;;;;;-145.70;100.00;63560.63;5073526;28;20029;-62
2022/09/19 03:47:01;;;;;;;3.25;1.00;;;;;;;-145.70;100.00;63560.63;5074778;28;20024;-62
2022/09/19 03:49:28;;;;;;;2.90;0.90;;;;;;;-145.70;100.00;63560.63;5062566;28;20097;-62
2022/09/19 03:51:53;;;;;;;3.35;1.10;;;;;;;-145.70;100.00;63560.63;5078071;28;20031;-64
2022/09/19 03:54:19;;;;;;;3.38;1.08;;;;;;;-145.70;100.00;63560.63;5081816;28;20039;-62
2022/09/19 03:56:44;;;;;;;3.10;1.05;;;;;;;-145.70;100.00;63560.63;5082256;28;20639;-62
2022/09/19 03:59:10;;;;;;;3.42;1.02;;;;;;;-145.70;100.00;63560.63;5063542;28;20032;-62
2022/09/19 04:01:35;;;;;;;3.60;1.20;;;;;;;-145.70;100.00;63560.63;5081488;28;20033;-62
2022/09/19 04:04:00;;;;;;;3.10;1.00;;;;;;;-145.70;100.00;63560.63;5075736;28;20040;-61
2022/09/19 04:06:26;;;;;;;3.38;1.10;;;;;;;-145.70;100.00;63560.63;5080159;28;20197;-62
2022/09/19 04:08:51;;;;;;;4.30;1.20;;;;;;;-145.70;100.00;63560.63;5078940;28;20453;-61
2022/09/19 04:11:17;;;;;;;3.28;1.00;;;;;;;-145.70;100.00;63560.63;5082199;28;20036;-61
2022/09/19 04:13:42;;;;;;;3.50;1.00;;;;;;;-145.70;100.00;63560.63;5077374;28;20702;-62
2022/09/19 04:16:08;;;;;;;3.00;1.00;;;;;;;-145.70;100.00;63560.63;5087380;28;20036;-62
2022/09/19 04:18:34;;;;;;;3.65;1.20;;;;;;;-145.70;100.00;63560.63;5063589;28;20036;-61
2022/09/19 04:21:00;;;;;;;2.78;0.88;;;;;;;-145.70;100.00;63560.63;5079155;28;20030;-62
2022/09/19 04:23:26;;;;;;;3.40;1.00;;;;;;;-145.70;100.00;63560.63;5074737;28;20042;-62
2022/09/19 04:25:51;;;;;;;4.60;1.20;;;;;;;-145.70;100.00;63560.63;5075520;28;21186;-61
2022/09/19 04:28:18;;;;;;;4.00;1.10;;;;;;;-145.70;100.00;63560.63;5080926;28;20463;-64
2022/09/19 04:30:44;;;;;;;3.47;1.00;;;;;;;-145.70;100.00;63560.63;5066413;28;20103;-62
2022/09/19 04:33:11;;;;;;;3.30;1.00;;;;;;;-145.70;100.00;63560.63;5105234;27;20110;-63
2022/09/19 04:35:38;;;;;;;3.85;1.10;;;;;;;-145.70;100.00;63560.63;5072455;28;20035;-62
2022/09/19 04:38:12;;;;;;;3.17;0.90;;;;;;;-145.70;100.00;63560.63;5088273;28;20024;-63
2022/09/19 04:40:46;;;;;;;3.33;1.10;;;;;;;-145.70;100.00;63560.63;5106247;27;20047;-62
2022/09/19 04:43:14;;;;;;;3.97;1.08;;;;;;;-145.70;100.00;63560.63;5058693;28;20146;-62
2022/09/19 04:45:42;;;;;;;3.30;1.10;;;;;;;-145.70;100.00;63560.63;5086033;28;20051;-62
2022/09/19 04:48:08;;;;;;;3.67;1.13;;;;;;;-145.70;100.00;63560.63;5060793;28;20073;-63
2022/09/19 04:50:34;;;;;;;4.68;1.13;;;;;;;-145.70;100.00;63560.63;5078523;28;20116;-62
2022/09/19 04:53:00;;;;;;;3.97;1.20;;;;;;;-145.70;100.00;63560.63;5071672;28;20047;-63
2022/09/19 04:55:25;;;;;;;3.63;1.10;;;;;;;-145.70;100.00;63560.63;5079054;28;20267;-62
2022/09/19 04:57:51;;;;;;;3.15;1.00;;;;;;;-145.70;100.00;63560.63;5062187;28;22320;-62
2022/09/19 05:00:37;;;;;;;4.78;1.50;;;;;;;-145.70;100.00;63560.63;5079539;28;20044;-61
2022/09/19 05:03:14;;;;;;;3.50;1.13;;;;;;;-145.70;100.00;63560.63;5077182;28;20051;-62
2022/09/19 05:05:50;;;;;;;4.10;1.23;;;;;;;-145.70;100.00;63560.63;5074393;28;20020;-58
2022/09/19 05:08:24;;;;;;;3.50;1.10;;;;;;;-145.70;100.00;63560.63;5071104;28;20037;-60
2022/09/19 05:10:51;;;;;;;5.03;1.25;;;;;;;-145.70;100.00;63560.63;5074999;28;20093;-59
2022/09/19 05:13:17;;;;;;;4.80;1.27;;;;;;;-145.70;100.00;63560.63;5079522;28;20118;-61
2022/09/19 05:15:44;;;;;;;3.83;1.30;;;;;;;-145.70;100.00;63560.63;5061819;28;20086;-60
2022/09/19 05:18:12;;;;;;;4.10;1.58;;;;;;;-145.70;100.00;63560.63;5073197;28;20085;-59
2022/09/19 05:20:38;;;;;;;4.53;1.40;;;;;;;-145.70;100.00;63560.63;5076493;28;20043;-59
2022/09/19 05:23:04;;;;;;;3.35;1.00;;;;;;;-145.70;100.00;63560.63;5062216;28;20028;-60
2022/09/19 05:25:31;;;;;;;4.00;1.38;;;;;;;-145.70;100.00;63560.63;5071352;28;20459;-60
2022/09/19 05:27:57;;;;;;;4.53;1.30;;;;;;;-145.70;100.00;63560.63;5057289;28;20016;-59
2022/09/19 05:30:24;;;;;;;4.35;1.20;;;;;;;-145.70;100.00;63560.63;5096922;27;20083;-59
2022/09/19 05:32:52;;;;;;;4.45;1.25;;;;;;;-145.70;100.00;63560.63;5061478;28;20040;-61
2022/09/19 05:35:18;;;;;;;3.13;1.13;;;;;;;-145.70;100.00;63560.63;5070933;28;20538;-59
2022/09/19 05:37:47;;;;;;;7.72;1.75;;;;;;;-145.70;100.00;63560.63;5050664;28;20035;-59
2022/09/19 05:40:12;;;;;;;4.20;1.50;;;;;;;-145.70;100.00;63560.63;5070002;28;20032;-60
2022/09/19 05:42:42;;;;;;;3.92;1.20;;;;;;;-145.70;100.00;63560.63;5071520;28;20035;-61
2022/09/19 05:45:09;;;;;;;4.93;1.17;;;;;;;-145.70;100.00;63560.63;5068686;28;20039;-60
2022/09/19 05:47:34;;;;;;;4.18;1.10;;;;;;;-145.70;100.00;63560.63;5064170;28;20039;-60
2022/09/19 05:49:59;;;;;;;6.03;1.48;;;;;;;-145.70;100.00;63560.63;5068252;28;20028;-59
2022/09/19 05:55:09;;;;;;;5.45;1.52;;;;;;;-145.70;100.00;63560.63;5096464;27;20055;-59
2022/09/19 05:57:35;;;;;;;7.40;1.58;;;;;;;-145.70;100.00;63560.63;5054390;28;20012;-61
2022/09/19 06:00:01;;;;;;;6.85;1.40;;;;;;;-145.70;100.00;63560.63;5071050;28;20028;-58
2022/09/19 06:02:27;;;;;;;10.80;1.40;;;;;;;-145.70;100.00;63560.63;5109104;27;20077;-59
2022/09/19 06:04:53;;;;;;;7.95;1.55;;;;;;;-145.70;100.00;63560.63;5075737;28;20054;-57
2022/09/19 06:07:20;;;;;;;6.75;1.42;;;;;;;-145.70;100.00;63560.63;5077618;28;20110;-57
2022/09/19 06:09:45;;;;;;;5.10;1.67;;;;;;;-145.70;100.00;63560.63;5066327;28;20039;-58
2022/09/19 06:12:11;;;;;;;6.80;1.50;;;;;;;-145.70;100.00;63560.63;5085712;28;20339;-58
2022/09/19 06:14:38;;;;;;;5.57;1.48;;;;;;;-145.70;100.00;63560.63;5055860;28;20032;-58
2022/09/19 06:17:04;;;;;;;4.93;1.30;;;;;;;-145.70;100.00;63560.63;5057317;28;20029;-58
2022/09/19 06:19:30;;;;;;;5.30;1.30;;;;;;;-145.70;100.00;63560.63;5054424;28;20035;-57
2022/09/19 06:21:57;;;;;;;5.63;1.58;;;;;;;-145.70;100.00;63560.63;5057131;28;20102;-58
2022/09/19 06:24:22;;;;;;;4.95;1.50;;;;;;;-145.70;100.00;63560.63;5068994;28;20032;-58
2022/09/19 06:26:48;;;;;;;4.63;1.52;;;;;;;-145.70;100.00;63560.63;5073664;28;20043;-57
2022/09/19 06:29:14;;;;;;;4.05;1.30;;;;;;;-145.70;100.00;63560.63;5054984;28;20376;-58
2022/09/19 06:31:39;;;;;;;5.82;1.27;;;;;;;-145.70;100.00;63560.63;5070872;28;20032;-57
2022/09/19 06:34:05;;;;;;;3.80;1.40;;;;;;;-145.70;100.00;63560.63;5078792;28;20059;-56
2022/09/19 06:36:30;;;;;;;4.60;1.70;;;;;;;-145.70;100.00;63560.63;5071071;28;20395;-57
2022/09/19 06:38:55;;;;;;;4.05;1.45;;;;;;;-145.70;100.00;63560.63;5078916;28;20168;-57
2022/09/19 06:41:21;;;;;;;5.30;1.45;;;;;;;-145.70;100.00;63560.63;5057298;28;20698;-57
2022/09/19 06:43:47;;;;;;;6.70;1.55;;;;;;;-145.70;100.00;63560.63;5070564;28;20032;-57
2022/09/19 06:46:12;;;;;;;5.32;1.60;;;;;;;-145.70;100.00;63560.63;5063581;28;20039;-56
2022/09/19 06:48:38;;;;;;;4.35;1.27;;;;;;;-145.70;100.00;63560.63;5074776;28;20647;-56
2022/09/19 06:51:03;;;;;;;10.07;2.00;;;;;;;-145.70;100.00;63560.63;5106332;27;20382;-57
2022/09/19 06:53:30;;;;;;;7.40;2.00;;;;;;;-145.70;100.00;63560.63;5055659;28;20065;-56
2022/09/19 06:55:56;;;;;;;8.50;1.88;;;;;;;-145.70;100.00;63560.63;5060845;28;20035;-56
2022/09/19 06:58:21;;;;;;;8.68;1.95;;;;;;;-145.70;100.00;63560.63;5070709;28;20559;-56
2022/09/19 07:00:47;;;;;;;8.88;2.33;;;;;;;-145.70;100.00;63560.63;5104501;27;20422;-57
2022/09/19 07:03:15;;;;;;;8.80;2.03;;;;;;;-145.70;100.00;63560.63;5062490;28;20024;-58
2022/09/19 07:05:42;;;;;;;8.15;1.75;;;;;;;-145.70;100.00;63560.63;5068810;28;20059;-57
2022/09/19 07:08:08;;;;;;;5.05;1.70;;;;;;;-145.70;100.00;63560.63;5058169;28;20020;-57
2022/09/19 07:10:36;;;;;;;5.50;1.42;;;;;;;-145.70;100.00;63560.63;5072457;28;20506;-56
2022/09/19 07:13:02;;;;;;;3.85;1.17;;;;;;;-145.70;100.00;63560.63;5075007;28;20126;-57
2022/09/19 07:15:33;;;;;;;3.55;0.90;;;;;;;-145.70;100.00;63560.63;5085838;28;20038;-57
2022/09/19 07:17:58;;;;;;;3.58;1.10;;;;;;;-145.70;100.00;63560.63;5074036;28;20035;-56
2022/09/19 07:20:26;;;;;;;3.85;0.90;;;;;;;-145.70;100.00;63560.63;5105073;27;20028;-57
2022/09/19 07:23:13;;;;;;;3.63;0.90;;;;;;;-145.70;100.00;63560.63;5080024;28;20650;-56
2022/09/19 07:25:40;;;;;;;4.82;0.80;;;;;;;-145.70;100.00;63560.63;5078367;28;20032;-57
2022/09/19 07:28:06;;;;;;;2.40;0.80;;;;;;;-145.70;100.00;63560.63;5045882;28;20032;-57
2022/09/19 07:30:34;;;;;;;3.50;0.95;;;;;;;-145.70;100.00;63560.63;5075862;28;20032;-59
2022/09/19 07:33:01;;;;;;;4.18;1.00;;;;;;;-145.70;100.00;63560.63;5073764;28;20028;-56
2022/09/19 07:35:28;;;;;;;3.50;1.00;;;;;;;-145.70;100.00;63560.63;5073227;28;20024;-58
2022/09/19 07:37:54;;;;;;;2.92;0.95;;;;;;;-145.70;100.00;63560.63;5065824;28;20108;-58
2022/09/19 07:40:20;;;;;;;2.88;0.90;;;;;;;-145.70;100.00;63560.63;5063069;28;20555;-57
2022/09/19 07:42:46;;;;;;;2.97;1.00;;;;;;;-145.70;100.00;63560.63;5079993;28;20081;-57
2022/09/19 07:45:12;;;;;;;2.72;0.82;;;;;;;-145.70;100.00;63560.63;5080861;28;20119;-57
2022/09/19 07:47:45;;;;;;;2.75;0.90;;;;;;;-145.70;100.00;63560.63;5061823;28;20119;-57
2022/09/19 07:50:16;;;;;;;2.83;0.90;;;;;;;-145.70;100.00;63560.63;5053504;28;20078;-58
2022/09/19 07:52:43;;;;;;;3.22;0.80;;;;;;;-145.70;100.00;63560.63;5065505;28;20113;-58
2022/09/19 07:55:10;;;;;;;3.28;1.00;;;;;;;-145.70;100.00;63560.63;5068043;28;20030;-58
2022/09/19 07:57:36;;;;;;;3.28;1.00;;;;;;;-145.70;100.00;63560.63;5077335;28;20029;-57
2022/09/19 08:00:02;;;;;;;3.30;0.98;;;;;;;-145.70;100.00;63560.63;5058517;28;20036;-59
2022/09/19 08:02:28;;;;;;;3.15;0.85;;;;;;;-145.70;100.00;63560.63;5074235;28;20032;-57
2022/09/19 08:04:53;;;;;;;2.60;0.73;;;;;;;-145.70;100.00;63560.63;5078774;28;20501;-56
2022/09/19 08:07:19;;;;;;;2.13;0.70;;;;;;;-145.70;100.00;63560.63;5066905;28;20059;-57
2022/09/19 08:09:44;;;;;;;2.83;0.80;;;;;;;-145.70;100.00;63560.63;5062794;28;20035;-57
2022/09/19 08:12:11;;;;;;;2.33;0.80;;;;;;;-145.70;100.00;63560.63;5064141;28;20081;-57
2022/09/19 08:14:37;;;;;;;4.93;0.90;;;;;;;-145.70;100.00;63560.63;5109661;27;20451;-57
2022/09/19 08:17:03;;;;;;;3.72;0.98;;;;;;;-145.70;100.00;63560.63;5061644;28;20020;-58
2022/09/19 08:19:28;;;;;;;3.83;1.17;;;;;;;-145.70;100.00;63560.63;5078513;28;20032;-57
2022/09/19 08:21:53;;;;;;;2.05;0.77;;;;;;;-145.70;100.00;63560.63;5065275;28;20490;-57
2022/09/19 08:24:19;;;;;;;4.15;0.90;;;;;;;-145.70;100.00;63560.63;5058614;28;20033;-56
2022/09/19 08:26:45;;;;;;;5.72;1.30;;;;;;;-145.70;100.00;63560.63;5066368;28;20028;-56
2022/09/19 08:29:10;;;;;;;2.78;0.85;;;;;;;-145.70;100.00;63560.63;5069262;28;20445;-58
2022/09/19 08:31:36;;;;;;;2.95;1.00;;;;;;;-145.70;100.00;63560.63;5089369;28;20454;-58
2022/09/19 08:34:02;;;;;;;2.88;0.80;;;;;;;-145.70;100.00;63560.63;5074146;28;20607;-57
2022/09/19 08:36:28;;;;;;;2.95;1.00;;;;;;;-145.70;100.00;63560.63;5068289;28;20025;-57
2022/09/19 08:38:53;;;;;;;2.15;0.73;;;;;;;-145.70;100.00;63560.63;5054552;28;20495;-57
2022/09/19 08:42:03;;;;;;;1.92;0.70;;;;;;;-145.70;100.00;63560.63;5061753;28;20181;-58
2022/09/19 08:45:04;;;;;;;4.20;0.65;;;;;;;-145.70;100.00;63560.63;5015775;28;20092;-57
2022/09/19 08:47:32;;;;;;;2.67;0.80;;;;;;;-145.70;100.00;63560.63;5056086;28;20032;-57
2022/09/19 08:50:05;;;;;;;3.55;0.90;;;;;;;-145.70;100.00;63560.63;5053239;28;20098;-58
2022/09/19 08:52:40;;;;;;;3.42;0.80;;;;;;;-145.70;100.00;63560.63;5077303;28;20060;-57
2022/09/19 08:55:07;;;;;;;3.22;0.90;;;;;;;-145.70;100.00;63560.63;5067287;28;20122;-57
2022/09/19 08:57:35;;;;;;;2.85;0.80;;;;;;;-145.70;100.00;63560.63;5059182;28;20075;-58
2022/09/19 09:00:05;;;;;;;2.50;0.80;;;;;;;-145.70;100.00;63560.63;5064612;28;20371;-57
2022/09/19 09:02:41;;;;;;;2.22;0.80;;;;;;;-145.70;100.00;63560.63;5075215;28;20036;-58
2022/09/19 09:05:12;;;;;;;3.63;1.08;;;;;;;-145.70;100.00;63560.63;5072973;28;20438;-57
2022/09/19 09:07:58;;;;;;;3.10;1.10;;;;;;;-145.70;100.00;63560.63;5062640;28;20112;-56
2022/09/19 09:10:29;;;;;;;3.75;1.00;;;;;;;-145.70;100.00;63560.63;5074102;28;20085;-57
2022/09/19 09:13:06;;;;;;;3.28;0.93;;;;;;;-145.70;100.00;63560.63;5077340;28;20042;-57
2022/09/19 09:16:19;;;;;;;2.95;0.80;;;;;;;-145.70;100.00;63560.63;5108110;27;20019;-57
2022/09/19 09:18:56;;;;;;;1.83;0.60;;;;;;;-145.70;100.00;63560.63;5056656;28;20063;-57
2022/09/19 09:21:42;;;;;;;2.30;0.60;;;;;;;-145.70;100.00;63560.63;5075942;28;20028;-57
2022/09/19 09:24:23;;;;;;;1.75;0.60;;;;;;;-145.70;100.00;63560.63;5080877;28;20032;-58
2022/09/19 09:26:51;;;;;;;2.90;0.80;;;;;;;-145.70;100.00;63560.63;5070558;28;20501;-57
2022/09/19 09:29:28;;;;;;;2.93;0.80;;;;;;;-145.70;100.00;63560.63;5069861;28;20024;-59
2022/09/19 09:32:00;;;;;;;2.92;1.00;;;;;;;-145.70;100.00;63560.63;5081049;28;20020;-58
2022/09/19 09:34:30;;;;;;;2.55;0.85;;;;;;;-145.70;100.00;63560.63;5078126;28;20039;-58
2022/09/19 09:37:09;;;;;;;4.03;0.80;;;;;;;-145.70;100.00;63560.63;5077213;28;20036;-57
2022/09/19 09:39:58;;;;;;;5.25;1.77;;;;;;;-145.70;100.00;63560.63;5075496;28;20028;-58
2022/09/19 09:42:46;;;;;;;2.70;0.95;;;;;;;-145.70;100.00;63560.63;5070435;28;20037;-57
2022/09/19 09:45:44;;;;;;;2.08;0.60;;;;;;;-145.70;100.00;63560.63;5073757;28;20723;-57
2022/09/19 09:48:32;;;;;;;3.08;1.00;;;;;;;-145.70;100.00;63560.63;5059931;28;20555;-58
2022/09/19 09:51:30;;;;;;;2.13;0.60;;;;;;;-145.70;100.00;63560.63;5053481;28;20027;-57
2022/09/19 09:57:10;;;;;;;2.97;0.70;;;;;;;-145.70;100.00;63560.63;5070861;28;20043;-58
2022/09/19 10:05:58;;;;;;;2.58;0.75;;;;;;;-145.70;100.00;63560.63;5101655;27;20457;-58
2022/09/19 10:08:30;;;;;;;2.03;0.55;;;;;;;-145.70;100.00;63560.63;5073595;28;20033;-58
2022/09/19 10:11:21;;;;;;;2.25;0.82;;;;;;;-145.70;100.00;63560.63;5072838;28;20028;-58
2022/09/19 10:14:01;;;;;;;3.22;0.80;;;;;;;-145.70;100.00;63560.63;5043718;28;20132;-59
2022/09/19 10:16:32;;;;;;;3.90;0.88;;;;;;;-145.70;100.00;63560.63;5051239;28;20044;-59
2022/09/19 10:19:04;;;;;;;3.78;0.73;;;;;;;-145.70;100.00;63560.63;5065256;28;20028;-59
2022/09/19 10:21:30;;;;;;;2.92;0.80;;;;;;;-145.70;100.00;63560.63;5103022;27;20112;-59
2022/09/19 10:23:56;;;;;;;1.83;0.65;;;;;;;-145.70;100.00;63560.63;5073519;28;20046;-59
2022/09/19 10:26:27;;;;;;;1.95;0.68;;;;;;;-145.70;100.00;63560.63;5075342;28;20043;-59
2022/09/19 10:28:59;;;;;;;2.17;0.60;;;;;;;-145.70;100.00;63560.63;5098975;27;20052;-59
2022/09/19 10:31:34;;;;;;;1.45;0.50;;;;;;;-145.70;100.00;63560.63;5069301;28;20038;-59
2022/09/19 10:34:04;;;;;;;2.17;0.70;;;;;;;-145.70;100.00;63560.63;5100947;27;20024;-59
2022/09/19 10:36:34;;;;;;;1.75;0.50;;;;;;;-145.70;100.00;63560.63;5067467;28;20032;-59
2022/09/19 10:39:13;;;;;;;3.10;0.75;;;;;;;-145.70;100.00;63560.63;5071200;28;20637;-59
2022/09/19 10:41:40;;;;;;;3.72;0.80;;;;;;;-145.70;100.00;63560.63;5066065;28;20509;-58
2022/09/19 10:44:17;;;;;;;1.85;0.60;;;;;;;-145.70;100.00;63560.63;5074336;28;20036;-58
2022/09/19 10:46:46;;;;;;;2.28;0.70;;;;;;;-145.70;100.00;63560.63;5078018;28;20031;-58
2022/09/19 10:49:20;;;;;;;2.88;0.73;;;;;;;-145.70;100.00;63560.63;5071769;28;20020;-59
2022/09/19 10:51:47;;;;;;;2.00;0.57;;;;;;;-145.70;100.00;63560.63;5065260;28;20108;-59
2022/09/19 10:54:25;;;;;;;2.63;0.80;;;;;;;-145.70;100.00;63560.63;5084076;28;20487;-60
2022/09/19 10:56:58;;;;;;;2.00;0.60;;;;;;;-145.70;100.00;63560.63;5069549;28;20027;-58
2022/09/19 10:59:38;;;;;;;2.58;0.73;;;;;;;-145.70;100.00;63560.63;5051505;28;20040;-59
2022/09/19 11:02:16;;;;;;;2.65;0.65;;;;;;;-145.70;100.00;63560.63;5080653;28;20039;-59
2022/09/19 11:04:59;;;;;;;2.35;0.50;;;;;;;-145.70;100.00;63560.63;5077257;28;20032;-59
2022/09/19 11:07:26;;;;;;;3.08;0.88;;;;;;;-145.70;100.00;63560.63;5112451;27;20032;-59
2022/09/19 11:09:58;;;;;;;3.33;0.90;;;;;;;-145.70;100.00;63560.63;5069915;28;20028;-59
2022/09/19 11:12:24;;;;;;;2.42;0.60;;;;;;;-145.70;100.00;63560.63;5075851;28;20036;-59
2022/09/19 11:14:51;;;;;;;2.35;0.70;;;;;;;-145.70;100.00;63560.63;5073269;28;20451;-59
2022/09/19 11:17:47;;;;;;;4.57;1.42;;;;;;;-145.70;100.00;63560.63;5069604;28;20036;-59
2022/09/19 11:20:30;;;;;;;2.13;0.70;;;;;;;-145.70;100.00;63560.63;5073539;28;20032;-59
2022/09/19 11:23:10;;;;;;;2.72;0.80;;;;;;;-145.70;100.00;63560.63;5077385;28;20038;-60
2022/09/19 11:25:58;;;;;;;3.10;0.93;;;;;;;-145.70;100.00;63560.63;5066642;28;20703;-60
2022/09/19 11:28:33;;;;;;;2.28;0.80;;;;;;;-145.70;100.00;63560.63;5074205;28;20133;-60
2022/09/19 11:31:10;;;;;;;2.92;1.10;;;;;;;-145.70;100.00;63560.63;5068859;28;20050;-60
2022/09/19 11:33:53;;;;;;;3.83;1.00;;;;;;;-145.70;100.00;63560.63;5072544;28;20031;-64
2022/09/19 11:36:25;;;;;;;2.53;0.70;;;;;;;-145.70;100.00;63560.63;5080776;28;20740;-64
2022/09/19 11:39:06;;;;;;;3.20;0.70;;;;;;;-145.70;100.00;63560.63;5074893;28;20387;-65
2022/09/19 11:41:58;;;;;;;3.65;0.60;;;;;;;-145.70;100.00;63560.63;5059302;28;20139;-65
2022/09/19 11:44:39;;;;;;;2.03;0.70;;;;;;;-145.70;100.00;63560.63;5088853;28;20032;-64